Main page
METAR-TAF:

METAR-TAF

Airports :

Lynden Pindling International Airport

Nassau, The Bahamas

latitude: 25-03N, longitude: 077-28W, elevation: 3 m

Current weather observation

The report was made 1 hour and 48 minutes ago, at 04:00 UTC
Wind 11 kt from the East/Southeast
Temperature 27°C
Humidity 79%
Pressure 1018 hPa
Visibility 10 km or more
Few clouds at a height of 2000 ft

METAR: MYNN 130400Z 12011KT 9999 FEW020 27/23 A3007

Time: 00:48 (05:48 UTC)

Forecast

The report was made 1 hour and 48 minutes ago, at 04:00 UTC
Forecast valid from 13 at 06 UTC to 14 at 06 UTC
Wind 11 kt from the East/Southeast
Visibility 10 km or more
Few clouds at a height of 2000 ft

TAF: MYNN 130400Z 1306/1406 12011KT 9999 FEW020

Weather observations and forecasts of more than 4000 airports (METAR and TAF reports).

The available stations are represented by yellow and red dots on the map.

Hover mouse over dot to see the name of the station.

Then click to see weather observations and forecasts.

To change the map : click on the green buttons with a black cross to zoom in, on the green button with a dash to zoom out, or on the green arrows for adjacent maps.


METAR-TAF: